createdAt,value
2019-03-28T00:01:21.155Z,48.73
2019-03-28T00:03:53.346Z,52.35
2019-03-28T00:06:24.423Z,50.75
2019-03-28T00:09:10.293Z,49.30
2019-03-28T00:11:41.267Z,53.38
2019-03-28T00:14:12.472Z,50.78
2019-03-28T00:16:43.604Z,44.75
2019-03-28T00:19:14.793Z,42.90
2019-03-28T00:21:45.856Z,40.17
2019-03-28T00:24:27.733Z,42.20
2019-03-28T00:26:58.883Z,41.50
2019-03-28T00:29:30.858Z,42.62
2019-03-28T00:32:02.132Z,39.53
2019-03-28T00:34:40.467Z,40.50
2019-03-28T00:37:11.554Z,52.90
2019-03-28T00:39:42.717Z,50.38
2019-03-28T00:42:13.809Z,49.15
2019-03-28T00:44:46.033Z,45.23
2019-03-28T00:47:17.034Z,50.23
2019-03-28T00:49:49.674Z,48.52
2019-03-28T00:52:21.065Z,47.03
2019-03-28T00:54:52.098Z,49.83
2019-03-28T00:57:23.151Z,37.03
2019-03-28T00:59:54.221Z,39.63
2019-03-28T01:02:25.207Z,33.53
2019-03-28T01:04:57.529Z,30.20
2019-03-28T01:07:28.597Z,37.23
2019-03-28T01:09:59.848Z,33.38
2019-03-28T01:12:30.866Z,27.13
2019-03-28T01:15:02.052Z,29.02
2019-03-28T01:17:34.384Z,31.10
2019-03-28T01:20:06.710Z,26.93
2019-03-28T01:22:38.862Z,33.13
2019-03-28T01:25:09.904Z,31.60
2019-03-28T01:27:40.931Z,38.63
2019-03-28T01:30:11.965Z,34.78
2019-03-28T01:32:42.965Z,33.50
2019-03-28T01:35:14.100Z,34.35
2019-03-28T01:37:45.119Z,32.95
2019-03-28T01:40:16.137Z,32.95
2019-03-28T01:42:47.146Z,28.42
2019-03-28T01:45:18.213Z,28.12
2019-03-28T01:47:49.194Z,32.33
2019-03-28T01:50:20.215Z,28.07
2019-03-28T01:52:51.470Z,24.70
2019-03-28T01:55:22.584Z,24.37
2019-03-28T01:57:53.594Z,25.72
2019-03-28T02:00:25.810Z,23.65
2019-03-28T02:02:56.802Z,24.60
2019-03-28T02:05:28.858Z,25.72
2019-03-28T02:08:02.615Z,26.40
2019-03-28T02:10:32.570Z,27.50
2019-03-28T02:13:06.931Z,32.45
2019-03-28T02:15:39.034Z,24.77
2019-03-28T02:18:10.077Z,30.62
2019-03-28T02:20:41.370Z,35.88
2019-03-28T02:23:12.527Z,46.95
2019-03-28T02:25:43.710Z,37.65
2019-03-28T02:28:14.816Z,35.60
2019-03-28T02:30:45.944Z,39.60
2019-03-28T02:33:17.157Z,32.58
2019-03-28T02:35:48.350Z,30.92
2019-03-28T02:38:19.463Z,27.48
2019-03-28T02:40:51.015Z,25.68
2019-03-28T02:43:21.912Z,28.75
2019-03-28T02:45:53.339Z,31.68
2019-03-28T02:48:24.323Z,35.83
2019-03-28T02:50:55.373Z,34.50
2019-03-28T02:53:26.587Z,34.45
2019-03-28T02:55:57.754Z,27.73
2019-03-28T02:58:29.004Z,25.57
2019-03-28T03:01:00.212Z,21.02
2019-03-28T03:03:31.342Z,22.60
2019-03-28T03:06:03.512Z,23.02
2019-03-28T03:08:34.531Z,20.60
2019-03-28T03:11:05.784Z,21.42
2019-03-28T03:13:36.816Z,20.77
2019-03-28T03:16:07.947Z,21.12
2019-03-28T03:18:38.979Z,21.02
2019-03-28T03:21:10.290Z,19.80
2019-03-28T03:23:41.401Z,21.10
2019-03-28T03:26:16.355Z,23.98
2019-03-28T03:28:47.538Z,26.10
2019-03-28T03:31:21.118Z,19.75
2019-03-28T03:33:51.472Z,21.02
2019-03-28T03:36:24.347Z,20.45
2019-03-28T03:38:55.368Z,18.35
2019-03-28T03:41:26.404Z,25.62
2019-03-28T03:43:57.462Z,28.47
2019-03-28T03:46:29.325Z,27.05
2019-03-28T03:49:00.916Z,20.60
2019-03-28T03:51:32.274Z,22.17
2019-03-28T03:54:03.477Z,27.00
2019-03-28T03:56:34.930Z,25.82
2019-03-28T03:59:06.530Z,20.25
2019-03-28T04:01:38.126Z,16.85
2019-03-28T04:04:09.465Z,22.02
2019-03-28T04:06:41.722Z,29.80
2019-03-28T04:09:12.732Z,20.08
2019-03-28T04:11:44.107Z,17.90
2019-03-28T04:14:15.354Z,15.70
2019-03-28T04:16:46.947Z,17.95
2019-03-28T04:19:18.092Z,15.05
2019-03-28T04:21:49.706Z,18.40
2019-03-28T04:24:22.179Z,16.87
2019-03-28T04:26:53.428Z,13.55
2019-03-28T04:29:24.615Z,15.38
2019-03-28T04:31:55.748Z,12.88
2019-03-28T04:34:27.643Z,28.20
2019-03-28T04:36:58.899Z,28.35
2019-03-28T04:39:30.986Z,32.28
2019-03-28T04:42:02.073Z,21.97
2019-03-28T04:44:33.172Z,14.15
2019-03-28T04:47:04.353Z,18.12
2019-03-28T04:49:35.541Z,20.97
2019-03-28T04:52:07.469Z,21.45
2019-03-28T04:54:38.760Z,30.85
2019-03-28T04:57:09.982Z,20.17
2019-03-28T04:59:41.457Z,18.90
2019-03-28T05:02:12.908Z,20.68
2019-03-28T05:04:43.929Z,12.65
2019-03-28T05:07:16.374Z,13.28
2019-03-28T05:09:47.441Z,15.88
2019-03-28T05:12:18.403Z,10.53
2019-03-28T05:14:49.885Z,12.03
2019-03-28T05:17:20.815Z,13.10
2019-03-28T05:19:51.810Z,11.15
2019-03-28T05:22:22.801Z,23.20
2019-03-28T05:24:53.921Z,23.65
2019-03-28T05:27:25.245Z,13.20
2019-03-28T05:29:56.202Z,14.47
2019-03-28T05:32:28.415Z,14.70
2019-03-28T05:35:00.216Z,19.80
2019-03-28T05:37:31.582Z,17.82
2019-03-28T05:40:02.907Z,21.50
2019-03-28T05:42:35.193Z,16.42
2019-03-28T05:45:06.962Z,18.57
2019-03-28T05:47:38.223Z,12.70
2019-03-28T05:50:09.683Z,14.07
2019-03-28T05:52:40.777Z,14.23
2019-03-28T05:55:11.967Z,12.20
2019-03-28T05:57:43.633Z,10.00
2019-03-28T06:00:14.679Z,11.55
2019-03-28T06:02:45.758Z,9.68
2019-03-28T06:05:16.977Z,10.68
2019-03-28T06:07:50.221Z,13.35
2019-03-28T06:10:23.185Z,8.50
2019-03-28T06:12:54.354Z,5.75
2019-03-28T06:15:25.983Z,12.15
2019-03-28T06:17:56.954Z,7.37
2019-03-28T06:20:28.215Z,11.70
2019-03-28T06:22:59.297Z,8.95
2019-03-28T06:25:30.416Z,11.70
2019-03-28T06:28:01.488Z,12.95
2019-03-28T06:30:32.490Z,7.65
2019-03-28T06:33:03.626Z,9.68
2019-03-28T06:35:34.706Z,9.23
2019-03-28T06:38:05.994Z,9.15
2019-03-28T06:40:37.133Z,6.95
2019-03-28T06:43:08.141Z,11.70
2019-03-28T06:45:39.365Z,11.90
2019-03-28T06:48:11.229Z,17.02
2019-03-28T06:50:44.477Z,7.90
2019-03-28T06:53:17.193Z,7.25
2019-03-28T06:55:48.708Z,6.12
2019-03-28T06:58:19.956Z,13.35
2019-03-28T07:00:51.167Z,14.85
2019-03-28T07:03:22.450Z,12.78
2019-03-28T07:05:53.593Z,9.33
2019-03-28T07:08:26.018Z,8.48
2019-03-28T07:10:58.189Z,6.85
2019-03-28T07:13:29.508Z,7.15
2019-03-28T07:16:01.317Z,5.92
2019-03-28T07:18:32.735Z,7.40
2019-03-28T07:21:05.006Z,6.72
2019-03-28T07:23:37.078Z,6.92
2019-03-28T07:26:08.592Z,5.12
2019-03-28T07:28:39.680Z,11.50
2019-03-28T07:31:11.091Z,7.00
2019-03-28T07:33:42.506Z,7.25
2019-03-28T07:36:14.714Z,12.82
2019-03-28T07:38:45.963Z,7.58
2019-03-28T07:41:17.855Z,5.53
2019-03-28T07:43:49.162Z,6.50
2019-03-28T07:46:20.410Z,6.03
2019-03-28T07:48:51.772Z,6.90
2019-03-28T07:51:24.650Z,12.93
2019-03-28T07:53:55.887Z,9.98
2019-03-28T07:56:27.006Z,12.05
2019-03-28T07:58:58.332Z,12.82
2019-03-28T08:01:29.541Z,9.33
2019-03-28T08:04:00.982Z,12.43
2019-03-28T08:06:33.059Z,14.60
2019-03-28T08:09:05.973Z,15.03
2019-03-28T08:11:37.480Z,13.13
2019-03-28T08:14:10.850Z,14.13
2019-03-28T08:16:42.249Z,15.72
2019-03-28T08:19:20.836Z,8.98
2019-03-28T08:21:53.990Z,11.22
2019-03-28T08:24:29.805Z,8.67
2019-03-28T08:27:03.346Z,11.57
2019-03-28T08:29:35.923Z,9.85
2019-03-28T08:32:09.006Z,13.10
2019-03-28T08:37:15.934Z,10.18
